sensor_id;sensor_type;location;lat;lon;timestamp;P1;durP1;ratioP1;P2;durP2;ratioP2
46006;SDS011;31738;50.188;8.524;2023-07-29T00:00:42;12.00;;;7.82;;
46006;SDS011;31738;50.188;8.524;2023-07-29T00:03:08;13.48;;;7.88;;
46006;SDS011;31738;50.188;8.524;2023-07-29T00:05:34;19.25;;;7.70;;
46006;SDS011;31738;50.188;8.524;2023-07-29T00:07:59;10.68;;;7.18;;
46006;SDS011;31738;50.188;8.524;2023-07-29T00:10:25;11.02;;;7.25;;
46006;SDS011;31738;50.188;8.524;2023-07-29T00:12:51;12.23;;;7.93;;
46006;SDS011;31738;50.188;8.524;2023-07-29T00:15:16;11.27;;;7.50;;
46006;SDS011;31738;50.188;8.524;2023-07-29T00:17:42;9.52;;;7.43;;
46006;SDS011;31738;50.188;8.524;2023-07-29T00:20:07;14.63;;;7.68;;
46006;SDS011;31738;50.188;8.524;2023-07-29T00:22:33;11.48;;;7.50;;
46006;SDS011;31738;50.188;8.524;2023-07-29T00:24:58;14.55;;;7.35;;
46006;SDS011;31738;50.188;8.524;2023-07-29T00:27:24;10.88;;;7.95;;
46006;SDS011;31738;50.188;8.524;2023-07-29T00:29:50;8.70;;;7.50;;
46006;SDS011;31738;50.188;8.524;2023-07-29T00:32:16;10.30;;;8.07;;
46006;SDS011;31738;50.188;8.524;2023-07-29T00:34:44;11.75;;;8.70;;
46006;SDS011;31738;50.188;8.524;2023-07-29T00:37:10;12.38;;;8.75;;
46006;SDS011;31738;50.188;8.524;2023-07-29T00:39:36;14.60;;;10.02;;
46006;SDS011;31738;50.188;8.524;2023-07-29T00:42:02;15.07;;;10.57;;
46006;SDS011;31738;50.188;8.524;2023-07-29T00:44:28;11.55;;;10.23;;
46006;SDS011;31738;50.188;8.524;2023-07-29T00:46:54;13.35;;;10.52;;
46006;SDS011;31738;50.188;8.524;2023-07-29T00:49:20;14.70;;;11.57;;
46006;SDS011;31738;50.188;8.524;2023-07-29T00:51:46;15.85;;;12.40;;
46006;SDS011;31738;50.188;8.524;2023-07-29T00:54:12;17.27;;;10.85;;
46006;SDS011;31738;50.188;8.524;2023-07-29T00:56:40;14.98;;;12.48;;
46006;SDS011;31738;50.188;8.524;2023-07-29T00:59:05;18.70;;;14.02;;
46006;SDS011;31738;50.188;8.524;2023-07-29T01:01:31;24.52;;;15.85;;
46006;SDS011;31738;50.188;8.524;2023-07-29T01:03:57;21.30;;;15.73;;
46006;SDS011;31738;50.188;8.524;2023-07-29T01:06:26;22.25;;;16.00;;
46006;SDS011;31738;50.188;8.524;2023-07-29T01:09:25;32.20;;;16.08;;
46006;SDS011;31738;50.188;8.524;2023-07-29T01:12:08;22.23;;;16.20;;
46006;SDS011;31738;50.188;8.524;2023-07-29T01:14:47;26.67;;;17.95;;
46006;SDS011;31738;50.188;8.524;2023-07-29T01:17:22;23.90;;;17.17;;
46006;SDS011;31738;50.188;8.524;2023-07-29T01:20:00;23.98;;;17.45;;
46006;SDS011;31738;50.188;8.524;2023-07-29T01:22:36;25.55;;;17.63;;
46006;SDS011;31738;50.188;8.524;2023-07-29T01:25:02;27.25;;;17.52;;
46006;SDS011;31738;50.188;8.524;2023-07-29T01:27:29;27.63;;;18.70;;
46006;SDS011;31738;50.188;8.524;2023-07-29T01:29:56;22.00;;;17.17;;
46006;SDS011;31738;50.188;8.524;2023-07-29T01:32:32;24.75;;;17.10;;
46006;SDS011;31738;50.188;8.524;2023-07-29T01:37:32;22.73;;;16.45;;
46006;SDS011;31738;50.188;8.524;2023-07-29T01:39:59;20.70;;;15.00;;
46006;SDS011;31738;50.188;8.524;2023-07-29T01:42:26;21.83;;;15.25;;
46006;SDS011;31738;50.188;8.524;2023-07-29T01:44:52;21.08;;;15.00;;
46006;SDS011;31738;50.188;8.524;2023-07-29T01:47:18;20.08;;;15.60;;
46006;SDS011;31738;50.188;8.524;2023-07-29T01:49:43;26.08;;;15.30;;
46006;SDS011;31738;50.188;8.524;2023-07-29T01:52:09;23.70;;;16.05;;
46006;SDS011;31738;50.188;8.524;2023-07-29T01:54:34;20.42;;;15.02;;
46006;SDS011;31738;50.188;8.524;2023-07-29T01:57:00;17.75;;;14.35;;
46006;SDS011;31738;50.188;8.524;2023-07-29T02:02:49;21.90;;;15.70;;
46006;SDS011;31738;50.188;8.524;2023-07-29T02:05:14;23.50;;;16.70;;
46006;SDS011;31738;50.188;8.524;2023-07-29T02:07:40;22.55;;;17.20;;
46006;SDS011;31738;50.188;8.524;2023-07-29T02:10:06;32.75;;;19.05;;
46006;SDS011;31738;50.188;8.524;2023-07-29T02:12:32;30.75;;;19.48;;
46006;SDS011;31738;50.188;8.524;2023-07-29T02:14:57;34.20;;;21.83;;
46006;SDS011;31738;50.188;8.524;2023-07-29T02:17:22;39.03;;;25.50;;
46006;SDS011;31738;50.188;8.524;2023-07-29T02:19:48;40.85;;;24.15;;
46006;SDS011;31738;50.188;8.524;2023-07-29T02:22:14;36.83;;;25.02;;
46006;SDS011;31738;50.188;8.524;2023-07-29T02:24:41;37.38;;;24.67;;
46006;SDS011;31738;50.188;8.524;2023-07-29T02:27:06;41.67;;;26.48;;
46006;SDS011;31738;50.188;8.524;2023-07-29T02:29:31;38.58;;;25.60;;
46006;SDS011;31738;50.188;8.524;2023-07-29T02:31:58;45.83;;;26.52;;
46006;SDS011;31738;50.188;8.524;2023-07-29T02:34:24;44.95;;;29.33;;
46006;SDS011;31738;50.188;8.524;2023-07-29T02:36:50;43.08;;;28.15;;
46006;SDS011;31738;50.188;8.524;2023-07-29T02:39:15;44.33;;;27.73;;
46006;SDS011;31738;50.188;8.524;2023-07-29T02:41:41;40.88;;;27.38;;
46006;SDS011;31738;50.188;8.524;2023-07-29T02:44:06;48.22;;;29.83;;
46006;SDS011;31738;50.188;8.524;2023-07-29T02:46:32;40.17;;;27.42;;
46006;SDS011;31738;50.188;8.524;2023-07-29T02:48:57;46.45;;;28.30;;
46006;SDS011;31738;50.188;8.524;2023-07-29T02:51:23;44.63;;;29.20;;
46006;SDS011;31738;50.188;8.524;2023-07-29T02:53:48;35.88;;;24.50;;
46006;SDS011;31738;50.188;8.524;2023-07-29T02:56:14;35.83;;;22.98;;
46006;SDS011;31738;50.188;8.524;2023-07-29T02:58:39;35.13;;;22.55;;
46006;SDS011;31738;50.188;8.524;2023-07-29T03:01:06;31.73;;;20.92;;
46006;SDS011;31738;50.188;8.524;2023-07-29T03:03:32;31.70;;;20.10;;
46006;SDS011;31738;50.188;8.524;2023-07-29T03:06:02;32.03;;;19.58;;
46006;SDS011;31738;50.188;8.524;2023-07-29T03:08:29;25.98;;;18.10;;
46006;SDS011;31738;50.188;8.524;2023-07-29T03:10:55;29.67;;;18.25;;
46006;SDS011;31738;50.188;8.524;2023-07-29T03:13:22;24.55;;;17.35;;
46006;SDS011;31738;50.188;8.524;2023-07-29T03:15:47;27.52;;;16.60;;
46006;SDS011;31738;50.188;8.524;2023-07-29T03:18:14;26.83;;;17.45;;
46006;SDS011;31738;50.188;8.524;2023-07-29T03:20:39;32.88;;;17.15;;
46006;SDS011;31738;50.188;8.524;2023-07-29T03:23:05;31.55;;;17.45;;
46006;SDS011;31738;50.188;8.524;2023-07-29T03:25:31;30.27;;;17.98;;
46006;SDS011;31738;50.188;8.524;2023-07-29T03:27:56;27.40;;;17.95;;
46006;SDS011;31738;50.188;8.524;2023-07-29T03:30:22;26.65;;;17.50;;
46006;SDS011;31738;50.188;8.524;2023-07-29T03:32:49;26.88;;;16.35;;
46006;SDS011;31738;50.188;8.524;2023-07-29T03:35:15;28.55;;;16.50;;
46006;SDS011;31738;50.188;8.524;2023-07-29T03:37:41;31.40;;;17.38;;
46006;SDS011;31738;50.188;8.524;2023-07-29T03:40:07;29.25;;;17.38;;
46006;SDS011;31738;50.188;8.524;2023-07-29T03:42:34;27.98;;;18.10;;
46006;SDS011;31738;50.188;8.524;2023-07-29T03:45:00;30.73;;;17.70;;
46006;SDS011;31738;50.188;8.524;2023-07-29T03:47:25;36.28;;;20.35;;
46006;SDS011;31738;50.188;8.524;2023-07-29T03:49:53;35.13;;;19.65;;
46006;SDS011;31738;50.188;8.524;2023-07-29T03:52:21;46.65;;;20.92;;
46006;SDS011;31738;50.188;8.524;2023-07-29T03:54:46;36.78;;;21.90;;
46006;SDS011;31738;50.188;8.524;2023-07-29T03:57:11;33.65;;;21.40;;
46006;SDS011;31738;50.188;8.524;2023-07-29T03:59:37;36.47;;;22.38;;
46006;SDS011;31738;50.188;8.524;2023-07-29T04:02:02;39.42;;;23.17;;
46006;SDS011;31738;50.188;8.524;2023-07-29T04:04:28;34.70;;;21.35;;
46006;SDS011;31738;50.188;8.524;2023-07-29T04:06:55;34.33;;;20.38;;
46006;SDS011;31738;50.188;8.524;2023-07-29T04:09:20;32.22;;;18.88;;
46006;SDS011;31738;50.188;8.524;2023-07-29T04:11:46;27.55;;;18.70;;
46006;SDS011;31738;50.188;8.524;2023-07-29T04:14:11;36.65;;;18.40;;
46006;SDS011;31738;50.188;8.524;2023-07-29T04:16:37;31.15;;;19.75;;
46006;SDS011;31738;50.188;8.524;2023-07-29T04:19:02;25.80;;;18.50;;
46006;SDS011;31738;50.188;8.524;2023-07-29T04:21:27;33.50;;;19.00;;
46006;SDS011;31738;50.188;8.524;2023-07-29T04:23:53;27.73;;;18.02;;
46006;SDS011;31738;50.188;8.524;2023-07-29T04:26:18;27.13;;;17.02;;
46006;SDS011;31738;50.188;8.524;2023-07-29T04:28:44;29.05;;;16.88;;
46006;SDS011;31738;50.188;8.524;2023-07-29T04:31:10;23.42;;;16.55;;
46006;SDS011;31738;50.188;8.524;2023-07-29T04:33:35;24.67;;;16.40;;
46006;SDS011;31738;50.188;8.524;2023-07-29T04:36:01;23.77;;;15.35;;
46006;SDS011;31738;50.188;8.524;2023-07-29T04:38:32;27.27;;;16.30;;
46006;SDS011;31738;50.188;8.524;2023-07-29T04:40:58;27.17;;;16.85;;
46006;SDS011;31738;50.188;8.524;2023-07-29T04:43:27;22.70;;;16.25;;
46006;SDS011;31738;50.188;8.524;2023-07-29T04:45:53;27.40;;;15.90;;
46006;SDS011;31738;50.188;8.524;2023-07-29T04:48:19;25.13;;;15.40;;
46006;SDS011;31738;50.188;8.524;2023-07-29T04:50:45;26.35;;;16.92;;
46006;SDS011;31738;50.188;8.524;2023-07-29T04:53:10;26.98;;;15.60;;
46006;SDS011;31738;50.188;8.524;2023-07-29T04:55:36;22.45;;;15.93;;
46006;SDS011;31738;50.188;8.524;2023-07-29T04:58:01;22.30;;;15.57;;
46006;SDS011;31738;50.188;8.524;2023-07-29T05:00:27;23.08;;;15.18;;
46006;SDS011;31738;50.188;8.524;2023-07-29T05:02:52;21.33;;;15.30;;
46006;SDS011;31738;50.188;8.524;2023-07-29T05:05:18;22.63;;;14.50;;
46006;SDS011;31738;50.188;8.524;2023-07-29T05:07:44;21.25;;;14.60;;
46006;SDS011;31738;50.188;8.524;2023-07-29T05:10:09;23.13;;;15.40;;
46006;SDS011;31738;50.188;8.524;2023-07-29T05:12:35;18.02;;;14.25;;
46006;SDS011;31738;50.188;8.524;2023-07-29T05:15:00;20.88;;;15.35;;
46006;SDS011;31738;50.188;8.524;2023-07-29T05:17:25;21.63;;;14.73;;
46006;SDS011;31738;50.188;8.524;2023-07-29T05:19:51;20.35;;;15.30;;
46006;SDS011;31738;50.188;8.524;2023-07-29T05:22:16;25.15;;;15.77;;
46006;SDS011;31738;50.188;8.524;2023-07-29T05:24:42;23.33;;;16.20;;
46006;SDS011;31738;50.188;8.524;2023-07-29T05:27:07;21.95;;;15.25;;
46006;SDS011;31738;50.188;8.524;2023-07-29T05:29:33;20.45;;;14.75;;
46006;SDS011;31738;50.188;8.524;2023-07-29T05:31:59;21.10;;;15.27;;
46006;SDS011;31738;50.188;8.524;2023-07-29T05:34:24;24.17;;;15.95;;
46006;SDS011;31738;50.188;8.524;2023-07-29T05:36:50;23.38;;;16.50;;
46006;SDS011;31738;50.188;8.524;2023-07-29T05:39:15;17.63;;;13.68;;
46006;SDS011;31738;50.188;8.524;2023-07-29T05:41:41;21.02;;;16.13;;
46006;SDS011;31738;50.188;8.524;2023-07-29T05:44:06;21.90;;;15.30;;
46006;SDS011;31738;50.188;8.524;2023-07-29T05:46:32;15.77;;;13.85;;
46006;SDS011;31738;50.188;8.524;2023-07-29T05:48:57;22.35;;;14.40;;
46006;SDS011;31738;50.188;8.524;2023-07-29T05:51:23;25.05;;;14.90;;
46006;SDS011;31738;50.188;8.524;2023-07-29T05:53:48;22.92;;;13.55;;
46006;SDS011;31738;50.188;8.524;2023-07-29T05:56:14;17.08;;;13.27;;
46006;SDS011;31738;50.188;8.524;2023-07-29T05:58:39;19.17;;;14.45;;
46006;SDS011;31738;50.188;8.524;2023-07-29T06:01:06;15.07;;;12.48;;
46006;SDS011;31738;50.188;8.524;2023-07-29T06:03:31;14.90;;;11.80;;
46006;SDS011;31738;50.188;8.524;2023-07-29T06:05:57;20.15;;;12.23;;
46006;SDS011;31738;50.188;8.524;2023-07-29T06:08:22;17.13;;;13.23;;
46006;SDS011;31738;50.188;8.524;2023-07-29T06:10:48;19.55;;;12.80;;
46006;SDS011;31738;50.188;8.524;2023-07-29T06:13:13;17.95;;;13.25;;
46006;SDS011;31738;50.188;8.524;2023-07-29T06:15:39;16.63;;;12.80;;
46006;SDS011;31738;50.188;8.524;2023-07-29T06:18:04;17.42;;;13.15;;
46006;SDS011;31738;50.188;8.524;2023-07-29T06:20:30;21.52;;;15.38;;
46006;SDS011;31738;50.188;8.524;2023-07-29T06:22:55;18.50;;;14.43;;
46006;SDS011;31738;50.188;8.524;2023-07-29T06:25:21;25.00;;;15.27;;
46006;SDS011;31738;50.188;8.524;2023-07-29T06:27:47;25.77;;;15.57;;
46006;SDS011;31738;50.188;8.524;2023-07-29T06:30:13;24.85;;;15.80;;
46006;SDS011;31738;50.188;8.524;2023-07-29T06:32:38;21.73;;;15.82;;
46006;SDS011;31738;50.188;8.524;2023-07-29T06:35:04;62.15;;;16.92;;
46006;SDS011;31738;50.188;8.524;2023-07-29T06:37:29;92.38;;;17.45;;
46006;SDS011;31738;50.188;8.524;2023-07-29T06:39:55;31.17;;;17.50;;
46006;SDS011;31738;50.188;8.524;2023-07-29T06:42:20;22.95;;;16.10;;
46006;SDS011;31738;50.188;8.524;2023-07-29T06:44:46;26.25;;;16.00;;
46006;SDS011;31738;50.188;8.524;2023-07-29T06:47:11;27.40;;;15.85;;
46006;SDS011;31738;50.188;8.524;2023-07-29T06:49:37;21.17;;;15.65;;
46006;SDS011;31738;50.188;8.524;2023-07-29T06:52:03;24.15;;;15.68;;
46006;SDS011;31738;50.188;8.524;2023-07-29T06:54:28;22.67;;;16.33;;
46006;SDS011;31738;50.188;8.524;2023-07-29T06:56:54;22.23;;;15.80;;
46006;SDS011;31738;50.188;8.524;2023-07-29T06:59:20;23.73;;;15.85;;
46006;SDS011;31738;50.188;8.524;2023-07-29T07:01:45;22.42;;;16.00;;
46006;SDS011;31738;50.188;8.524;2023-07-29T07:04:11;23.92;;;14.65;;
46006;SDS011;31738;50.188;8.524;2023-07-29T07:06:37;17.38;;;14.27;;
46006;SDS011;31738;50.188;8.524;2023-07-29T07:09:02;19.90;;;14.27;;
46006;SDS011;31738;50.188;8.524;2023-07-29T07:11:28;20.63;;;14.25;;
46006;SDS011;31738;50.188;8.524;2023-07-29T07:13:53;19.30;;;14.00;;
46006;SDS011;31738;50.188;8.524;2023-07-29T07:16:19;20.48;;;14.55;;
46006;SDS011;31738;50.188;8.524;2023-07-29T07:18:44;21.80;;;14.63;;
46006;SDS011;31738;50.188;8.524;2023-07-29T07:21:10;19.80;;;13.93;;
46006;SDS011;31738;50.188;8.524;2023-07-29T07:23:35;20.35;;;14.82;;
46006;SDS011;31738;50.188;8.524;2023-07-29T07:26:01;21.23;;;14.57;;
46006;SDS011;31738;50.188;8.524;2023-07-29T07:28:27;22.23;;;14.65;;
46006;SDS011;31738;50.188;8.524;2023-07-29T07:30:52;20.95;;;15.20;;
46006;SDS011;31738;50.188;8.524;2023-07-29T07:33:18;20.25;;;14.10;;
46006;SDS011;31738;50.188;8.524;2023-07-29T07:35:43;20.15;;;15.00;;
46006;SDS011;31738;50.188;8.524;2023-07-29T07:38:09;18.15;;;13.70;;
46006;SDS011;31738;50.188;8.524;2023-07-29T07:40:35;15.27;;;13.20;;
46006;SDS011;31738;50.188;8.524;2023-07-29T07:43:01;16.50;;;12.88;;
46006;SDS011;31738;50.188;8.524;2023-07-29T07:45:26;14.93;;;11.90;;
46006;SDS011;31738;50.188;8.524;2023-07-29T07:47:52;12.60;;;11.30;;
46006;SDS011;31738;50.188;8.524;2023-07-29T07:50:21;14.35;;;10.98;;
46006;SDS011;31738;50.188;8.524;2023-07-29T07:52:46;14.13;;;12.00;;
46006;SDS011;31738;50.188;8.524;2023-07-29T07:55:12;16.80;;;12.43;;
46006;SDS011;31738;50.188;8.524;2023-07-29T07:57:37;14.20;;;11.88;;
46006;SDS011;31738;50.188;8.524;2023-07-29T08:00:03;15.27;;;11.43;;
46006;SDS011;31738;50.188;8.524;2023-07-29T08:02:38;14.32;;;11.57;;
46006;SDS011;31738;50.188;8.524;2023-07-29T08:05:03;14.50;;;12.10;;
46006;SDS011;31738;50.188;8.524;2023-07-29T08:07:29;13.23;;;11.70;;
46006;SDS011;31738;50.188;8.524;2023-07-29T08:09:55;13.40;;;11.00;;
46006;SDS011;31738;50.188;8.524;2023-07-29T08:12:20;13.10;;;11.38;;
46006;SDS011;31738;50.188;8.524;2023-07-29T08:14:45;14.75;;;11.45;;
46006;SDS011;31738;50.188;8.524;2023-07-29T08:17:11;10.05;;;8.73;;
46006;SDS011;31738;50.188;8.524;2023-07-29T08:19:36;13.90;;;10.73;;
46006;SDS011;31738;50.188;8.524;2023-07-29T08:22:02;13.70;;;10.45;;
46006;SDS011;31738;50.188;8.524;2023-07-29T08:24:29;13.55;;;10.52;;
46006;SDS011;31738;50.188;8.524;2023-07-29T08:26:54;12.30;;;10.18;;
46006;SDS011;31738;50.188;8.524;2023-07-29T08:29:19;14.45;;;10.38;;
46006;SDS011;31738;50.188;8.524;2023-07-29T08:31:45;11.18;;;9.95;;
46006;SDS011;31738;50.188;8.524;2023-07-29T08:34:10;12.48;;;10.05;;
46006;SDS011;31738;50.188;8.524;2023-07-29T08:36:36;15.48;;;10.65;;
46006;SDS011;31738;50.188;8.524;2023-07-29T08:39:01;13.25;;;10.63;;
46006;SDS011;31738;50.188;8.524;2023-07-29T08:41:36;10.75;;;9.68;;
46006;SDS011;31738;50.188;8.524;2023-07-29T08:44:12;12.80;;;8.77;;
46006;SDS011;31738;50.188;8.524;2023-07-29T08:46:48;8.77;;;7.75;;
46006;SDS011;31738;50.188;8.524;2023-07-29T08:49:13;10.88;;;7.78;;
46006;SDS011;31738;50.188;8.524;2023-07-29T08:51:41;10.27;;;8.45;;
46006;SDS011;31738;50.188;8.524;2023-07-29T08:54:07;6.68;;;6.07;;
46006;SDS011;31738;50.188;8.524;2023-07-29T08:56:34;6.95;;;6.35;;
46006;SDS011;31738;50.188;8.524;2023-07-29T08:58:59;5.75;;;5.10;;
46006;SDS011;31738;50.188;8.524;2023-07-29T09:01:27;6.72;;;5.07;;
46006;SDS011;31738;50.188;8.524;2023-07-29T09:03:53;7.78;;;5.53;;
46006;SDS011;31738;50.188;8.524;2023-07-29T09:06:19;7.35;;;5.38;;
46006;SDS011;31738;50.188;8.524;2023-07-29T09:08:46;10.73;;;5.72;;
46006;SDS011;31738;50.188;8.524;2023-07-29T09:11:14;7.35;;;4.85;;
46006;SDS011;31738;50.188;8.524;2023-07-29T09:13:42;5.70;;;4.45;;
46006;SDS011;31738;50.188;8.524;2023-07-29T09:16:12;4.55;;;4.13;;
46006;SDS011;31738;50.188;8.524;2023-07-29T09:18:38;4.18;;;3.80;;
46006;SDS011;31738;50.188;8.524;2023-07-29T09:21:04;4.57;;;4.03;;
46006;SDS011;31738;50.188;8.524;2023-07-29T09:23:42;3.85;;;3.10;;
46006;SDS011;31738;50.188;8.524;2023-07-29T09:26:08;5.57;;;3.05;;
46006;SDS011;31738;50.188;8.524;2023-07-29T09:28:35;3.75;;;3.40;;
46006;SDS011;31738;50.188;8.524;2023-07-29T09:31:02;4.50;;;3.25;;
46006;SDS011;31738;50.188;8.524;2023-07-29T09:33:34;3.72;;;2.90;;
46006;SDS011;31738;50.188;8.524;2023-07-29T09:36:02;5.30;;;3.88;;
46006;SDS011;31738;50.188;8.524;2023-07-29T09:38:34;5.70;;;3.72;;
46006;SDS011;31738;50.188;8.524;2023-07-29T09:40:59;4.05;;;3.10;;
46006;SDS011;31738;50.188;8.524;2023-07-29T09:43:25;7.78;;;2.88;;
46006;SDS011;31738;50.188;8.524;2023-07-29T09:45:54;4.53;;;2.90;;
46006;SDS011;31738;50.188;8.524;2023-07-29T09:48:22;5.70;;;3.10;;
46006;SDS011;31738;50.188;8.524;2023-07-29T09:50:48;3.22;;;2.95;;
46006;SDS011;31738;50.188;8.524;2023-07-29T09:53:14;3.72;;;2.83;;
46006;SDS011;31738;50.188;8.524;2023-07-29T09:55:39;4.93;;;2.90;;
46006;SDS011;31738;50.188;8.524;2023-07-29T09:58:10;6.82;;;3.90;;
46006;SDS011;31738;50.188;8.524;2023-07-29T10:00:36;7.38;;;2.92;;
46006;SDS011;31738;50.188;8.524;2023-07-29T10:03:04;3.22;;;2.83;;
46006;SDS011;31738;50.188;8.524;2023-07-29T10:05:29;5.80;;;2.75;;
46006;SDS011;31738;50.188;8.524;2023-07-29T10:07:55;5.75;;;2.90;;
46006;SDS011;31738;50.188;8.524;2023-07-29T10:10:21;5.63;;;2.90;;
46006;SDS011;31738;50.188;8.524;2023-07-29T10:12:47;2.97;;;2.45;;
46006;SDS011;31738;50.188;8.524;2023-07-29T10:15:14;3.42;;;2.38;;
46006;SDS011;31738;50.188;8.524;2023-07-29T10:17:40;2.53;;;2.10;;
46006;SDS011;31738;50.188;8.524;2023-07-29T10:20:07;3.45;;;2.28;;
46006;SDS011;31738;50.188;8.524;2023-07-29T10:22:41;3.45;;;2.20;;
46006;SDS011;31738;50.188;8.524;2023-07-29T10:25:08;6.40;;;2.20;;
46006;SDS011;31738;50.188;8.524;2023-07-29T10:30:29;5.07;;;2.58;;
46006;SDS011;31738;50.188;8.524;2023-07-29T10:32:55;2.72;;;2.20;;
46006;SDS011;31738;50.188;8.524;2023-07-29T10:35:23;3.60;;;2.15;;
46006;SDS011;31738;50.188;8.524;2023-07-29T10:37:50;3.53;;;2.25;;
46006;SDS011;31738;50.188;8.524;2023-07-29T10:40:18;3.20;;;2.38;;
46006;SDS011;31738;50.188;8.524;2023-07-29T10:43:02;4.18;;;2.30;;
46006;SDS011;31738;50.188;8.524;2023-07-29T10:45:37;4.45;;;2.60;;
46006;SDS011;31738;50.188;8.524;2023-07-29T10:48:10;3.42;;;2.10;;
46006;SDS011;31738;50.188;8.524;2023-07-29T10:50:36;2.05;;;1.80;;
46006;SDS011;31738;50.188;8.524;2023-07-29T10:53:01;2.28;;;1.92;;
46006;SDS011;31738;50.188;8.524;2023-07-29T10:55:34;3.03;;;1.92;;
46006;SDS011;31738;50.188;8.524;2023-07-29T10:58:07;4.35;;;2.00;;
46006;SDS011;31738;50.188;8.524;2023-07-29T11:00:44;2.75;;;1.80;;
46006;SDS011;31738;50.188;8.524;2023-07-29T11:03:11;1.95;;;1.80;;
46006;SDS011;31738;50.188;8.524;2023-07-29T11:13:36;4.63;;;1.90;;
46006;SDS011;31738;50.188;8.524;2023-07-29T11:16:03;4.93;;;2.17;;
46006;SDS011;31738;50.188;8.524;2023-07-29T11:18:30;3.38;;;1.67;;
46006;SDS011;31738;50.188;8.524;2023-07-29T11:20:57;2.13;;;1.67;;
46006;SDS011;31738;50.188;8.524;2023-07-29T11:23:27;3.15;;;1.50;;
46006;SDS011;31738;50.188;8.524;2023-07-29T11:26:02;2.03;;;1.70;;
46006;SDS011;31738;50.188;8.524;2023-07-29T11:28:29;3.70;;;1.80;;
46006;SDS011;31738;50.188;8.524;2023-07-29T11:30:55;2.22;;;1.50;;
46006;SDS011;31738;50.188;8.524;2023-07-29T11:33:23;2.85;;;1.48;;
46006;SDS011;31738;50.188;8.524;2023-07-29T11:35:50;2.53;;;1.63;;
46006;SDS011;31738;50.188;8.524;2023-07-29T11:38:16;3.08;;;1.40;;
46006;SDS011;31738;50.188;8.524;2023-07-29T11:40:43;2.33;;;1.50;;
46006;SDS011;31738;50.188;8.524;2023-07-29T11:43:18;1.80;;;1.38;;
46006;SDS011;31738;50.188;8.524;2023-07-29T11:45:44;2.08;;;1.50;;
46006;SDS011;31738;50.188;8.524;2023-07-29T11:48:10;2.38;;;1.55;;
46006;SDS011;31738;50.188;8.524;2023-07-29T11:50:35;3.42;;;1.90;;
46006;SDS011;31738;50.188;8.524;2023-07-29T11:53:02;4.28;;;1.60;;
46006;SDS011;31738;50.188;8.524;2023-07-29T11:55:28;2.10;;;1.58;;
46006;SDS011;31738;50.188;8.524;2023-07-29T11:57:53;2.35;;;1.45;;
46006;SDS011;31738;50.188;8.524;2023-07-29T12:00:20;5.50;;;1.60;;
46006;SDS011;31738;50.188;8.524;2023-07-29T12:02:46;1.55;;;1.45;;
46006;SDS011;31738;50.188;8.524;2023-07-29T12:05:14;2.03;;;1.67;;
46006;SDS011;31738;50.188;8.524;2023-07-29T12:07:41;1.70;;;1.40;;
46006;SDS011;31738;50.188;8.524;2023-07-29T12:10:08;2.97;;;1.80;;
46006;SDS011;31738;50.188;8.524;2023-07-29T12:12:47;2.33;;;1.83;;
46006;SDS011;31738;50.188;8.524;2023-07-29T12:15:22;1.90;;;1.65;;
46006;SDS011;31738;50.188;8.524;2023-07-29T12:17:48;2.88;;;1.70;;
46006;SDS011;31738;50.188;8.524;2023-07-29T12:20:13;3.75;;;1.75;;
46006;SDS011;31738;50.188;8.524;2023-07-29T12:22:39;3.78;;;1.60;;
46006;SDS011;31738;50.188;8.524;2023-07-29T12:25:05;2.38;;;1.85;;
46006;SDS011;31738;50.188;8.524;2023-07-29T12:27:31;2.22;;;1.38;;
46006;SDS011;31738;50.188;8.524;2023-07-29T12:29:57;3.28;;;1.63;;
46006;SDS011;31738;50.188;8.524;2023-07-29T12:32:24;2.65;;;1.98;;
46006;SDS011;31738;50.188;8.524;2023-07-29T12:34:52;2.13;;;1.60;;
46006;SDS011;31738;50.188;8.524;2023-07-29T12:37:18;1.95;;;1.40;;
46006;SDS011;31738;50.188;8.524;2023-07-29T12:39:44;2.80;;;1.50;;
46006;SDS011;31738;50.188;8.524;2023-07-29T12:42:09;2.20;;;1.60;;
46006;SDS011;31738;50.188;8.524;2023-07-29T12:44:37;2.28;;;1.60;;
46006;SDS011;31738;50.188;8.524;2023-07-29T12:47:04;2.10;;;1.63;;
46006;SDS011;31738;50.188;8.524;2023-07-29T12:49:31;3.50;;;1.70;;
46006;SDS011;31738;50.188;8.524;2023-07-29T12:52:00;2.10;;;1.55;;
46006;SDS011;31738;50.188;8.524;2023-07-29T12:54:26;3.03;;;1.30;;
46006;SDS011;31738;50.188;8.524;2023-07-29T12:56:51;3.70;;;1.60;;
46006;SDS011;31738;50.188;8.524;2023-07-29T12:59:17;2.47;;;1.70;;
46006;SDS011;31738;50.188;8.524;2023-07-29T13:01:43;1.80;;;1.70;;
46006;SDS011;31738;50.188;8.524;2023-07-29T13:04:09;3.53;;;1.90;;
46006;SDS011;31738;50.188;8.524;2023-07-29T13:06:35;1.95;;;1.50;;
46006;SDS011;31738;50.188;8.524;2023-07-29T13:09:00;2.25;;;1.90;;
46006;SDS011;31738;50.188;8.524;2023-07-29T13:11:26;9.40;;;1.70;;
46006;SDS011;31738;50.188;8.524;2023-07-29T13:13:51;4.95;;;1.55;;
46006;SDS011;31738;50.188;8.524;2023-07-29T13:16:17;2.28;;;1.58;;
46006;SDS011;31738;50.188;8.524;2023-07-29T13:18:43;3.72;;;1.67;;
46006;SDS011;31738;50.188;8.524;2023-07-29T13:21:09;3.53;;;1.52;;
46006;SDS011;31738;50.188;8.524;2023-07-29T13:23:34;1.98;;;1.60;;
46006;SDS011;31738;50.188;8.524;2023-07-29T13:26:00;2.72;;;1.77;;
46006;SDS011;31738;50.188;8.524;2023-07-29T13:28:25;1.85;;;1.50;;
46006;SDS011;31738;50.188;8.524;2023-07-29T13:30:51;3.35;;;1.38;;
46006;SDS011;31738;50.188;8.524;2023-07-29T13:33:16;2.67;;;1.60;;
46006;SDS011;31738;50.188;8.524;2023-07-29T13:35:42;1.92;;;1.55;;
46006;SDS011;31738;50.188;8.524;2023-07-29T13:38:07;2.45;;;1.40;;
46006;SDS011;31738;50.188;8.524;2023-07-29T13:40:33;3.90;;;1.50;;
46006;SDS011;31738;50.188;8.524;2023-07-29T14:25:57;3.30;;;1.60;;
46006;SDS011;31738;50.188;8.524;2023-07-29T14:28:22;1.88;;;1.60;;
46006;SDS011;31738;50.188;8.524;2023-07-29T14:30:47;4.07;;;1.50;;
46006;SDS011;31738;50.188;8.524;2023-07-29T14:33:13;1.92;;;1.40;;
46006;SDS011;31738;50.188;8.524;2023-07-29T14:35:39;1.77;;;1.60;;
46006;SDS011;31738;50.188;8.524;2023-07-29T14:38:05;3.70;;;1.42;;
46006;SDS011;31738;50.188;8.524;2023-07-29T14:40:30;1.50;;;1.40;;
46006;SDS011;31738;50.188;8.524;2023-07-29T14:42:56;2.33;;;1.73;;
46006;SDS011;31738;50.188;8.524;2023-07-29T14:45:21;2.80;;;1.80;;
46006;SDS011;31738;50.188;8.524;2023-07-29T14:47:47;4.35;;;1.83;;
46006;SDS011;31738;50.188;8.524;2023-07-29T14:50:12;4.47;;;1.83;;
46006;SDS011;31738;50.188;8.524;2023-07-29T14:52:38;3.50;;;1.73;;
46006;SDS011;31738;50.188;8.524;2023-07-29T14:55:03;3.65;;;1.70;;
46006;SDS011;31738;50.188;8.524;2023-07-29T14:57:29;2.95;;;1.70;;
46006;SDS011;31738;50.188;8.524;2023-07-29T14:59:54;2.85;;;1.65;;
46006;SDS011;31738;50.188;8.524;2023-07-29T15:02:20;2.42;;;1.63;;
46006;SDS011;31738;50.188;8.524;2023-07-29T15:04:47;3.17;;;2.15;;
46006;SDS011;31738;50.188;8.524;2023-07-29T15:07:13;2.55;;;1.67;;
46006;SDS011;31738;50.188;8.524;2023-07-29T15:09:38;2.95;;;1.63;;
46006;SDS011;31738;50.188;8.524;2023-07-29T15:12:04;3.42;;;1.48;;
46006;SDS011;31738;50.188;8.524;2023-07-29T15:14:29;3.05;;;1.60;;
46006;SDS011;31738;50.188;8.524;2023-07-29T15:16:55;2.03;;;1.70;;
46006;SDS011;31738;50.188;8.524;2023-07-29T15:19:20;2.97;;;1.50;;
46006;SDS011;31738;50.188;8.524;2023-07-29T15:21:46;2.97;;;1.67;;
46006;SDS011;31738;50.188;8.524;2023-07-29T15:24:12;3.92;;;1.40;;
46006;SDS011;31738;50.188;8.524;2023-07-29T15:26:37;1.70;;;1.52;;
46006;SDS011;31738;50.188;8.524;2023-07-29T15:29:03;2.40;;;1.67;;